createdAt,value
2022-10-12T00:01:10.506Z,8.40
2022-10-12T00:03:38.368Z,8.77
2022-10-12T00:06:17.239Z,8.20
2022-10-12T00:08:46.344Z,8.48
2022-10-12T00:11:21.853Z,7.68
2022-10-12T00:13:49.373Z,8.60
2022-10-12T00:16:19.820Z,7.72
2022-10-12T00:18:52.312Z,12.77
2022-10-12T00:21:20.927Z,14.15
2022-10-12T00:23:48.807Z,10.98
2022-10-12T00:26:21.283Z,11.73
2022-10-12T00:28:49.175Z,10.30
2022-10-12T00:31:20.971Z,10.13
2022-10-12T00:33:48.654Z,8.63
2022-10-12T00:36:27.380Z,7.55
2022-10-12T00:38:56.602Z,9.32
2022-10-12T00:41:29.590Z,8.75
2022-10-12T00:43:58.879Z,8.60
2022-10-12T00:46:46.236Z,8.80
2022-10-12T00:49:26.460Z,8.48
2022-10-12T00:52:00.652Z,7.90
2022-10-12T00:54:36.469Z,7.88
2022-10-12T00:57:06.321Z,8.65
2022-10-12T00:59:43.784Z,9.65
2022-10-12T01:02:12.814Z,9.90
2022-10-12T01:04:41.458Z,8.70
2022-10-12T01:07:08.715Z,13.15
2022-10-12T01:09:36.850Z,11.75
2022-10-12T01:12:07.350Z,12.93
2022-10-12T01:14:36.039Z,11.73
2022-10-12T01:17:35.470Z,10.63
2022-10-12T01:20:46.887Z,11.85
2022-10-12T01:23:17.399Z,10.05
2022-10-12T01:26:34.338Z,10.15
2022-10-12T01:29:22.859Z,10.68
2022-10-12T01:32:03.208Z,9.98
2022-10-12T01:35:00.525Z,11.35
2022-10-12T01:37:52.582Z,11.88
2022-10-12T01:40:44.344Z,9.55
2022-10-12T01:43:11.748Z,8.80
2022-10-12T01:45:39.089Z,9.23
2022-10-12T01:48:07.428Z,7.93
2022-10-12T01:50:51.226Z,7.60
2022-10-12T01:53:53.569Z,7.43
2022-10-12T01:56:31.464Z,8.57
2022-10-12T01:59:31.418Z,8.90
2022-10-12T02:02:12.063Z,8.77
2022-10-12T02:04:52.000Z,10.10
2022-10-12T02:07:48.412Z,10.35
2022-10-12T02:10:28.142Z,12.60
2022-10-12T02:13:01.129Z,16.92
2022-10-12T02:15:30.594Z,17.45
2022-10-12T02:17:59.236Z,16.30
2022-10-12T02:20:28.372Z,13.00
2022-10-12T02:22:56.084Z,12.30
2022-10-12T02:25:27.430Z,13.20
2022-10-12T02:28:05.653Z,13.30
2022-10-12T02:30:43.727Z,11.73
2022-10-12T02:33:35.806Z,8.35
2022-10-12T02:36:15.790Z,7.88
2022-10-12T02:38:57.521Z,8.13
2022-10-12T02:41:36.335Z,9.48
2022-10-12T02:44:10.197Z,9.50
2022-10-12T02:46:40.159Z,9.65
2022-10-12T02:49:08.515Z,8.55
2022-10-12T02:51:39.047Z,9.25
2022-10-12T02:54:06.233Z,9.75
2022-10-12T02:56:33.579Z,9.57
2022-10-12T02:59:00.816Z,8.55
2022-10-12T03:01:28.072Z,10.32
2022-10-12T03:03:55.470Z,9.75
2022-10-12T03:06:22.674Z,9.25
2022-10-12T03:08:49.979Z,11.98
2022-10-12T03:11:17.403Z,20.30
2022-10-12T03:13:44.618Z,17.05
2022-10-12T03:16:12.092Z,17.98
2022-10-12T03:18:40.130Z,19.58
2022-10-12T03:21:07.739Z,18.48
2022-10-12T03:23:34.985Z,17.35
2022-10-12T03:26:02.480Z,19.73
2022-10-12T03:28:29.957Z,18.13
2022-10-12T03:30:59.753Z,18.80
2022-10-12T03:33:27.412Z,17.55
2022-10-12T03:35:54.831Z,17.10
2022-10-12T03:38:22.341Z,16.27
2022-10-12T03:40:49.887Z,15.20
2022-10-12T03:43:17.416Z,15.35
2022-10-12T03:45:44.870Z,15.73
2022-10-12T03:48:12.155Z,16.50
2022-10-12T03:50:40.284Z,16.85
2022-10-12T03:53:07.785Z,18.23
2022-10-12T03:55:35.251Z,15.88
2022-10-12T03:58:02.468Z,14.00
2022-10-12T04:00:30.563Z,18.70
2022-10-12T04:02:57.812Z,17.63
2022-10-12T04:05:25.096Z,15.70
2022-10-12T04:07:52.548Z,17.35
2022-10-12T04:10:19.880Z,15.38
2022-10-12T04:12:47.168Z,14.63
2022-10-12T04:15:15.061Z,18.38
2022-10-12T04:17:42.480Z,16.55
2022-10-12T04:20:11.580Z,17.98
2022-10-12T04:22:40.067Z,16.05
2022-10-12T04:25:08.040Z,13.60
2022-10-12T04:27:35.331Z,13.55
2022-10-12T04:30:03.041Z,14.02
2022-10-12T04:32:31.031Z,13.93
2022-10-12T04:34:58.470Z,14.18
2022-10-12T04:37:28.162Z,13.77
2022-10-12T04:39:55.903Z,12.73
2022-10-12T04:42:23.076Z,13.43
2022-10-12T04:44:50.556Z,11.90
2022-10-12T04:47:17.826Z,12.35
2022-10-12T04:49:45.478Z,12.02
2022-10-12T04:52:12.829Z,11.00
2022-10-12T04:54:41.077Z,12.32
2022-10-12T04:57:08.471Z,12.95
2022-10-12T04:59:35.971Z,13.30
2022-10-12T05:02:03.125Z,13.95
2022-10-12T05:04:30.623Z,14.27
2022-10-12T05:06:58.074Z,13.20
2022-10-12T05:09:25.364Z,12.32
2022-10-12T05:11:52.720Z,11.98
2022-10-12T05:14:20.074Z,12.55
2022-10-12T05:16:48.539Z,13.80
2022-10-12T05:19:16.035Z,15.13
2022-10-12T05:21:43.648Z,12.88
2022-10-12T05:24:11.404Z,13.18
2022-10-12T05:26:38.825Z,13.93
2022-10-12T05:29:06.085Z,12.45
2022-10-12T05:31:33.564Z,13.98
2022-10-12T05:34:01.160Z,11.25
2022-10-12T05:36:28.594Z,12.68
2022-10-12T05:38:55.958Z,10.43
2022-10-12T05:41:23.442Z,10.77
2022-10-12T05:43:50.698Z,11.35
2022-10-12T05:46:18.194Z,11.90
2022-10-12T05:48:45.367Z,11.50
2022-10-12T05:51:12.780Z,10.57
2022-10-12T05:53:40.173Z,13.48
2022-10-12T05:56:08.610Z,17.77
2022-10-12T05:58:35.884Z,17.23
2022-10-12T06:01:14.519Z,15.13
2022-10-12T06:03:43.656Z,21.10
2022-10-12T06:06:11.844Z,21.23
2022-10-12T06:08:39.586Z,23.70
2022-10-12T06:11:07.655Z,20.73
2022-10-12T06:13:34.846Z,20.85
2022-10-12T06:16:02.231Z,21.58
2022-10-12T06:18:29.460Z,27.48
2022-10-12T06:21:28.371Z,24.60
2022-10-12T06:23:44.492Z,26.02
2022-10-12T06:26:16.498Z,27.10
2022-10-12T06:28:44.327Z,23.80
2022-10-12T06:31:11.915Z,24.33
2022-10-12T06:33:39.516Z,23.02
2022-10-12T06:36:07.507Z,23.83
2022-10-12T06:38:34.809Z,23.77
2022-10-12T06:41:02.290Z,22.92
2022-10-12T06:43:29.476Z,24.95
2022-10-12T06:46:03.601Z,24.75
2022-10-12T06:48:31.351Z,20.77
2022-10-12T06:50:58.819Z,23.75
2022-10-12T06:53:28.867Z,24.30
2022-10-12T06:55:56.486Z,23.73
2022-10-12T06:58:23.847Z,21.90
2022-10-12T07:00:52.488Z,24.42
2022-10-12T07:03:20.396Z,20.60
2022-10-12T07:05:47.935Z,23.02
2022-10-12T07:08:15.143Z,21.98
2022-10-12T07:10:42.571Z,19.73
2022-10-12T07:13:09.783Z,20.50
2022-10-12T07:15:37.209Z,18.30
2022-10-12T07:18:04.486Z,17.05
2022-10-12T07:20:32.161Z,17.90
2022-10-12T07:22:59.344Z,24.15
2022-10-12T07:25:26.746Z,19.73
2022-10-12T07:27:54.020Z,16.63
2022-10-12T07:30:21.441Z,14.07
2022-10-12T07:32:48.628Z,15.63
2022-10-12T07:35:16.055Z,13.18
2022-10-12T07:37:43.151Z,14.43
2022-10-12T07:40:10.686Z,13.68
2022-10-12T07:42:53.706Z,11.98
2022-10-12T07:45:28.731Z,15.30
2022-10-12T07:47:56.688Z,11.82
2022-10-12T07:50:25.295Z,11.77
2022-10-12T07:52:52.730Z,9.55
2022-10-12T07:55:20.031Z,11.20
2022-10-12T07:57:47.391Z,11.25
2022-10-12T08:00:15.212Z,11.20
2022-10-12T08:02:42.853Z,11.25
2022-10-12T08:05:10.241Z,11.13
2022-10-12T08:07:37.890Z,12.52
2022-10-12T08:10:05.959Z,11.55
2022-10-12T08:12:33.427Z,12.07
2022-10-12T08:15:00.913Z,10.05
2022-10-12T08:17:28.479Z,8.27
2022-10-12T08:19:55.673Z,9.30
2022-10-12T08:22:23.290Z,10.30
2022-10-12T08:24:50.437Z,8.48
2022-10-12T08:27:17.846Z,9.60
2022-10-12T08:29:45.023Z,9.68
2022-10-12T08:32:12.461Z,7.57
2022-10-12T08:34:39.753Z,8.27
2022-10-12T08:37:07.115Z,7.75
2022-10-12T08:39:34.334Z,6.10
2022-10-12T08:42:24.213Z,8.82
2022-10-12T08:45:38.111Z,7.40
2022-10-12T08:48:26.277Z,8.93
2022-10-12T08:51:11.167Z,7.35
2022-10-12T08:53:55.745Z,9.05
2022-10-12T08:56:23.447Z,4.57
2022-10-12T08:58:54.587Z,4.22
2022-10-12T09:01:59.870Z,3.70
2022-10-12T09:04:54.864Z,4.07
2022-10-12T09:07:30.689Z,4.88
2022-10-12T09:10:17.956Z,3.80
2022-10-12T09:13:14.809Z,3.78
2022-10-12T09:16:02.544Z,3.97
2022-10-12T09:18:49.758Z,3.75
2022-10-12T09:21:20.940Z,3.78
2022-10-12T09:23:49.353Z,3.58
2022-10-12T09:26:43.851Z,3.35
2022-10-12T09:29:31.647Z,3.20
2022-10-12T09:32:56.207Z,3.70
2022-10-12T09:35:24.959Z,3.08
2022-10-12T09:37:54.547Z,2.58
2022-10-12T09:40:30.972Z,2.40
2022-10-12T09:43:01.678Z,2.63
2022-10-12T09:45:34.298Z,3.40
2022-10-12T09:48:24.841Z,3.35
2022-10-12T09:51:03.263Z,3.25
2022-10-12T09:53:41.720Z,3.10
2022-10-12T09:56:24.685Z,3.83
2022-10-12T09:58:56.859Z,4.32
2022-10-12T10:01:30.757Z,3.58
2022-10-12T10:04:24.088Z,4.00
2022-10-12T10:06:51.609Z,3.40
2022-10-12T10:09:38.989Z,3.78
2022-10-12T10:12:27.298Z,3.25
2022-10-12T10:14:57.419Z,3.40
2022-10-12T10:17:37.378Z,4.07
2022-10-12T10:20:08.389Z,3.30
2022-10-12T10:22:35.771Z,3.65
2022-10-12T10:25:03.029Z,3.30
2022-10-12T10:27:40.438Z,3.47
2022-10-12T10:30:35.199Z,2.75
2022-10-12T10:33:19.095Z,3.20
2022-10-12T10:36:05.074Z,3.33
2022-10-12T10:38:57.811Z,3.10
2022-10-12T10:41:33.263Z,3.33
2022-10-12T10:44:00.443Z,3.30
2022-10-12T10:46:33.102Z,3.25
2022-10-12T10:49:07.601Z,3.05
2022-10-12T10:51:48.492Z,3.65
2022-10-12T10:54:23.736Z,3.50
2022-10-12T10:56:59.155Z,4.93
2022-10-12T10:59:41.337Z,8.15
2022-10-12T11:02:47.035Z,5.15
2022-10-12T11:05:22.206Z,3.30
2022-10-12T11:08:11.179Z,3.30
2022-10-12T11:10:52.433Z,4.50
2022-10-12T11:13:39.917Z,5.57
2022-10-12T11:16:51.296Z,3.90
2022-10-12T11:19:30.349Z,3.92
2022-10-12T11:22:05.788Z,3.67
2022-10-12T11:24:46.065Z,3.17
2022-10-12T11:27:28.143Z,3.60
2022-10-12T11:30:09.210Z,3.70
2022-10-12T11:33:07.922Z,4.90
2022-10-12T11:35:43.937Z,3.35
2022-10-12T11:38:16.496Z,3.47
2022-10-12T11:41:18.969Z,4.68
2022-10-12T11:44:00.733Z,3.20
2022-10-12T11:46:40.231Z,5.57
2022-10-12T11:49:34.626Z,5.95
2022-10-12T11:52:28.895Z,3.58
2022-10-12T11:55:31.344Z,3.10
2022-10-12T11:58:13.134Z,3.35
2022-10-12T12:00:56.235Z,2.88
2022-10-12T12:03:45.379Z,3.70
2022-10-12T12:06:30.626Z,3.13
2022-10-12T12:09:04.005Z,4.82
2022-10-12T12:11:34.957Z,2.60
2022-10-12T12:14:21.049Z,2.95
2022-10-12T12:16:49.766Z,2.28
2022-10-12T12:19:43.114Z,3.00
2022-10-12T12:22:29.273Z,3.00
2022-10-12T12:25:10.613Z,2.47
2022-10-12T12:27:50.890Z,2.60
2022-10-12T12:30:18.241Z,2.45
2022-10-12T12:33:00.025Z,2.55
2022-10-12T12:35:29.505Z,3.83
2022-10-12T12:38:17.906Z,4.72
2022-10-12T12:41:05.416Z,3.50
2022-10-12T12:43:32.635Z,2.83
2022-10-12T12:46:14.917Z,3.30
2022-10-12T12:48:42.054Z,2.80
2022-10-12T12:51:14.105Z,2.78
2022-10-12T12:54:06.604Z,4.65
2022-10-12T12:56:45.778Z,2.83
2022-10-12T12:59:49.657Z,2.85
2022-10-12T13:02:49.339Z,2.30
2022-10-12T13:06:06.507Z,3.33
2022-10-12T13:08:52.007Z,2.38
2022-10-12T13:11:58.975Z,2.38
2022-10-12T13:15:03.330Z,2.55
2022-10-12T13:18:00.943Z,2.58
2022-10-12T13:20:34.394Z,3.03
2022-10-12T13:23:09.058Z,6.43
2022-10-12T13:25:46.352Z,6.55
2022-10-12T13:28:32.796Z,4.78
2022-10-12T13:31:14.658Z,3.83
2022-10-12T13:33:59.175Z,3.08
2022-10-12T13:36:31.559Z,3.10
2022-10-12T13:39:16.346Z,2.90
2022-10-12T13:41:46.399Z,3.00
2022-10-12T13:44:34.642Z,2.10
2022-10-12T13:47:21.251Z,1.83
2022-10-12T13:49:48.609Z,2.50
2022-10-12T13:52:26.187Z,1.92
2022-10-12T13:54:58.231Z,1.98
2022-10-12T13:57:41.066Z,2.00
2022-10-12T14:00:14.392Z,2.30
2022-10-12T14:02:53.224Z,2.28
2022-10-12T14:05:24.888Z,1.80
2022-10-12T14:07:57.522Z,2.20
2022-10-12T14:10:37.380Z,1.80
2022-10-12T14:13:07.317Z,1.48
2022-10-12T14:15:41.022Z,1.95
2022-10-12T14:18:42.382Z,1.80
2022-10-12T14:21:34.600Z,1.70
2022-10-12T14:24:10.550Z,2.22
2022-10-12T14:26:42.394Z,2.40
2022-10-12T14:29:40.988Z,2.22
2022-10-12T14:32:39.355Z,2.08
2022-10-12T14:35:18.702Z,2.67
2022-10-12T14:37:47.717Z,2.17
2022-10-12T14:40:28.645Z,1.67
2022-10-12T14:43:08.163Z,2.10
2022-10-12T14:45:39.434Z,1.90
2022-10-12T14:48:18.008Z,2.10
2022-10-12T14:50:45.866Z,1.75
2022-10-12T14:53:15.422Z,1.67
2022-10-12T14:55:44.694Z,2.13
2022-10-12T14:58:17.330Z,1.80
2022-10-12T15:00:45.190Z,2.05
2022-10-12T15:03:12.772Z,2.08
2022-10-12T15:05:40.119Z,2.80
2022-10-12T15:08:09.176Z,3.17
2022-10-12T15:10:37.685Z,5.93
2022-10-12T15:13:05.364Z,3.42
2022-10-12T15:15:42.656Z,5.03
2022-10-12T15:18:10.686Z,3.90
2022-10-12T15:20:38.929Z,4.38
2022-10-12T15:23:06.824Z,5.45
2022-10-12T15:25:56.916Z,4.93
2022-10-12T15:28:24.519Z,4.90
2022-10-12T15:31:15.818Z,6.47
2022-10-12T15:33:41.722Z,5.60
2022-10-12T15:36:09.822Z,5.72
2022-10-12T15:38:37.846Z,4.50
2022-10-12T15:41:05.832Z,4.88
2022-10-12T15:43:35.703Z,5.20
2022-10-12T15:46:05.624Z,4.07
2022-10-12T15:48:33.049Z,4.75
2022-10-12T15:51:00.325Z,4.80
2022-10-12T15:53:27.847Z,5.00
2022-10-12T15:55:56.102Z,5.10
2022-10-12T15:58:24.318Z,4.40
2022-10-12T16:00:51.636Z,4.05
2022-10-12T16:03:25.621Z,3.53
2022-10-12T16:05:54.537Z,2.90
2022-10-12T16:08:22.828Z,3.65
2022-10-12T16:10:51.086Z,3.80
2022-10-12T16:13:18.990Z,3.20
2022-10-12T16:15:46.387Z,3.15
2022-10-12T16:18:16.786Z,4.53
2022-10-12T16:20:47.632Z,4.05
2022-10-12T16:23:28.676Z,4.20
2022-10-12T16:25:57.158Z,4.50
2022-10-12T16:28:25.991Z,5.75
2022-10-12T16:30:54.414Z,8.55
2022-10-12T16:33:22.227Z,10.85
2022-10-12T16:35:49.484Z,10.50
2022-10-12T16:38:19.814Z,12.50
2022-10-12T16:40:50.767Z,10.68
2022-10-12T16:43:19.475Z,8.93
2022-10-12T16:45:55.949Z,8.30
2022-10-12T16:48:23.427Z,7.93
2022-10-12T16:50:50.661Z,8.18
2022-10-12T16:53:18.173Z,7.18
2022-10-12T16:55:45.910Z,7.80
2022-10-12T16:58:13.345Z,6.70
2022-10-12T17:00:42.350Z,8.93
2022-10-12T17:03:13.869Z,14.43
2022-10-12T17:05:42.539Z,18.17
2022-10-12T17:08:15.125Z,17.50
2022-10-12T17:10:44.725Z,19.23
2022-10-12T17:13:13.623Z,20.05
2022-10-12T17:15:44.140Z,20.73
2022-10-12T17:18:11.554Z,19.45
2022-10-12T17:20:38.781Z,21.35
2022-10-12T17:23:06.448Z,21.98
2022-10-12T17:25:33.747Z,23.98
2022-10-12T17:28:01.221Z,23.15
2022-10-12T17:30:28.491Z,20.75
2022-10-12T17:32:55.884Z,21.02
2022-10-12T17:35:23.449Z,17.67
2022-10-12T17:37:50.833Z,17.83
2022-10-12T17:40:18.325Z,17.98
2022-10-12T17:42:45.765Z,17.58
2022-10-12T17:45:13.443Z,17.70
2022-10-12T17:47:40.933Z,23.02
2022-10-12T17:50:08.891Z,28.20
2022-10-12T17:52:39.699Z,27.17
2022-10-12T17:55:09.387Z,24.73
2022-10-12T17:57:42.707Z,24.05
2022-10-12T18:00:11.187Z,16.92
2022-10-12T18:02:38.497Z,14.55
2022-10-12T18:05:06.343Z,13.00
2022-10-12T18:07:33.890Z,12.68
2022-10-12T18:10:01.129Z,15.10
2022-10-12T18:12:28.835Z,17.10
2022-10-12T18:14:56.093Z,20.38
2022-10-12T18:17:23.383Z,21.65
2022-10-12T18:19:51.655Z,20.08
2022-10-12T18:22:19.150Z,19.95
2022-10-12T18:24:49.007Z,20.55
2022-10-12T18:27:16.506Z,16.80
2022-10-12T18:29:44.018Z,17.88
2022-10-12T18:32:12.925Z,18.42
2022-10-12T18:34:43.526Z,18.33
2022-10-12T18:37:10.748Z,18.42
2022-10-12T18:39:40.227Z,17.33
2022-10-12T18:42:07.527Z,16.17
2022-10-12T18:44:35.011Z,15.05
2022-10-12T18:47:02.330Z,15.02
2022-10-12T18:49:29.839Z,14.73
2022-10-12T18:51:57.161Z,14.05
2022-10-12T18:54:24.631Z,13.35
2022-10-12T18:56:51.912Z,13.85
2022-10-12T18:59:20.399Z,13.63
2022-10-12T19:01:47.659Z,12.13
2022-10-12T19:04:15.058Z,12.05
2022-10-12T19:06:43.255Z,13.48
2022-10-12T19:09:13.769Z,12.77
2022-10-12T19:11:41.477Z,12.02
2022-10-12T19:14:15.976Z,12.02
2022-10-12T19:16:44.799Z,11.95
2022-10-12T19:19:20.829Z,11.20
2022-10-12T19:21:51.671Z,11.18
2022-10-12T19:24:21.461Z,11.63
2022-10-12T19:26:49.417Z,11.00
2022-10-12T19:29:17.061Z,12.55
2022-10-12T19:31:47.960Z,13.63
2022-10-12T19:34:19.409Z,12.88
2022-10-12T19:36:48.343Z,14.10
2022-10-12T19:39:21.237Z,15.70
2022-10-12T19:41:50.783Z,12.48
2022-10-12T19:44:19.395Z,14.82
2022-10-12T19:46:48.939Z,13.75
2022-10-12T19:49:18.601Z,16.35
2022-10-12T19:51:46.720Z,15.00
2022-10-12T19:54:15.953Z,14.60
2022-10-12T19:56:43.509Z,18.23
2022-10-12T19:59:11.352Z,17.17
2022-10-12T20:01:40.445Z,15.07
2022-10-12T20:04:10.172Z,15.30
2022-10-12T20:06:38.321Z,14.82
2022-10-12T20:09:08.391Z,14.93
2022-10-12T20:11:38.390Z,15.95
2022-10-12T20:14:06.872Z,15.43
2022-10-12T20:16:36.309Z,16.42
2022-10-12T20:19:06.955Z,15.48
2022-10-12T20:21:36.560Z,15.63
2022-10-12T20:24:04.174Z,16.17
2022-10-12T20:26:31.694Z,14.23
2022-10-12T20:28:58.931Z,15.25
2022-10-12T20:31:28.041Z,13.63
2022-10-12T20:33:58.015Z,13.48
2022-10-12T20:36:30.612Z,12.43
2022-10-12T20:38:59.891Z,15.15
2022-10-12T20:41:28.881Z,13.48
2022-10-12T20:43:59.037Z,13.70
2022-10-12T20:46:28.814Z,11.60
2022-10-12T20:48:59.687Z,10.65
2022-10-12T20:51:44.591Z,12.73
2022-10-12T20:54:18.766Z,11.30
2022-10-12T20:56:49.485Z,11.18
2022-10-12T20:59:16.978Z,12.23
2022-10-12T21:01:44.579Z,12.85
2022-10-12T21:04:11.938Z,14.02
2022-10-12T21:06:39.865Z,12.23
2022-10-12T21:09:07.165Z,13.38
2022-10-12T21:11:34.628Z,12.95
2022-10-12T21:14:02.180Z,14.10
2022-10-12T21:16:29.822Z,12.40
2022-10-12T21:18:57.139Z,12.43
2022-10-12T21:21:25.209Z,12.38
2022-10-12T21:24:01.441Z,13.48
2022-10-12T21:26:31.659Z,13.27
2022-10-12T21:29:00.274Z,12.98
2022-10-12T21:31:32.409Z,12.57
2022-10-12T21:34:05.704Z,13.75
2022-10-12T21:36:36.565Z,13.02
2022-10-12T21:39:16.870Z,15.20
2022-10-12T21:41:44.343Z,15.73
2022-10-12T21:44:12.695Z,17.52
2022-10-12T21:46:40.383Z,19.25
2022-10-12T21:49:08.472Z,19.50
2022-10-12T21:51:37.828Z,19.58
2022-10-12T21:54:06.905Z,18.92
2022-10-12T21:56:36.746Z,20.50
2022-10-12T21:59:06.365Z,20.70
2022-10-12T22:01:40.449Z,21.67
2022-10-12T22:04:13.768Z,17.70
2022-10-12T22:06:43.295Z,17.40
2022-10-12T22:09:16.622Z,17.58
2022-10-12T22:11:44.134Z,16.42
2022-10-12T22:14:18.655Z,19.92
2022-10-12T22:16:46.800Z,19.38
2022-10-12T22:19:19.886Z,17.42
2022-10-12T22:21:51.261Z,17.50
2022-10-12T22:24:20.219Z,19.35
2022-10-12T22:26:47.790Z,19.48
2022-10-12T22:29:15.169Z,19.15
2022-10-12T22:31:44.412Z,18.70
2022-10-12T22:34:11.785Z,20.10
2022-10-12T22:36:38.987Z,19.17
2022-10-12T22:39:06.477Z,20.55
2022-10-12T22:41:33.728Z,19.77
2022-10-12T22:44:00.912Z,19.60
2022-10-12T22:46:28.374Z,19.25
2022-10-12T22:48:55.796Z,19.48
2022-10-12T22:51:32.977Z,20.77
2022-10-12T22:54:02.324Z,20.48
2022-10-12T22:56:30.249Z,22.65
2022-10-12T22:59:01.538Z,19.67
2022-10-12T23:01:29.700Z,18.73
2022-10-12T23:03:57.090Z,20.38
2022-10-12T23:06:25.685Z,20.42
2022-10-12T23:08:53.801Z,18.63
2022-10-12T23:11:28.343Z,17.05
2022-10-12T23:13:57.820Z,19.65
2022-10-12T23:16:31.350Z,18.35
2022-10-12T23:19:03.018Z,18.65
2022-10-12T23:21:31.798Z,17.40
2022-10-12T23:24:01.299Z,18.65
2022-10-12T23:26:29.755Z,19.10
2022-10-12T23:28:57.532Z,17.67
2022-10-12T23:31:28.626Z,18.23
2022-10-12T23:34:02.978Z,16.58
2022-10-12T23:36:31.293Z,16.92
2022-10-12T23:39:05.105Z,15.55
2022-10-12T23:41:32.597Z,18.02
2022-10-12T23:44:00.055Z,15.00
2022-10-12T23:46:27.364Z,12.65
2022-10-12T23:48:54.726Z,12.65
2022-10-12T23:51:22.232Z,13.73
2022-10-12T23:53:49.528Z,14.25
2022-10-12T23:56:16.994Z,15.25
2022-10-12T23:58:44.444Z,15.88
